sensor_id;sensor_type;location;lat;lon;timestamp;P1;durP1;ratioP1;P2;durP2;ratioP2
50205;SDS011;36098;48.390;10.856;2024-01-25T00:01:52;4.93;;;1.30;;
50205;SDS011;36098;48.390;10.856;2024-01-25T00:04:17;4.50;;;1.30;;
50205;SDS011;36098;48.390;10.856;2024-01-25T00:06:42;2.70;;;1.00;;
50205;SDS011;36098;48.390;10.856;2024-01-25T00:09:07;2.88;;;1.33;;
50205;SDS011;36098;48.390;10.856;2024-01-25T00:11:33;4.80;;;1.52;;
50205;SDS011;36098;48.390;10.856;2024-01-25T00:13:58;4.53;;;1.20;;
50205;SDS011;36098;48.390;10.856;2024-01-25T00:16:24;3.25;;;1.17;;
50205;SDS011;36098;48.390;10.856;2024-01-25T00:18:49;4.00;;;1.70;;
50205;SDS011;36098;48.390;10.856;2024-01-25T00:21:14;4.28;;;1.35;;
50205;SDS011;36098;48.390;10.856;2024-01-25T00:23:39;3.28;;;1.40;;
50205;SDS011;36098;48.390;10.856;2024-01-25T00:26:05;4.35;;;1.50;;
50205;SDS011;36098;48.390;10.856;2024-01-25T00:28:30;3.40;;;1.20;;
50205;SDS011;36098;48.390;10.856;2024-01-25T00:30:55;4.63;;;1.20;;
50205;SDS011;36098;48.390;10.856;2024-01-25T00:33:20;3.85;;;1.20;;
50205;SDS011;36098;48.390;10.856;2024-01-25T00:35:46;3.42;;;0.93;;
50205;SDS011;36098;48.390;10.856;2024-01-25T00:38:11;3.20;;;1.27;;
50205;SDS011;36098;48.390;10.856;2024-01-25T00:40:37;3.72;;;1.30;;
50205;SDS011;36098;48.390;10.856;2024-01-25T00:43:02;2.38;;;1.00;;
50205;SDS011;36098;48.390;10.856;2024-01-25T00:45:28;3.58;;;1.23;;
50205;SDS011;36098;48.390;10.856;2024-01-25T00:47:54;3.03;;;1.27;;
50205;SDS011;36098;48.390;10.856;2024-01-25T00:50:19;3.80;;;1.33;;
50205;SDS011;36098;48.390;10.856;2024-01-25T00:52:46;3.47;;;1.15;;
50205;SDS011;36098;48.390;10.856;2024-01-25T00:55:13;2.92;;;1.13;;
50205;SDS011;36098;48.390;10.856;2024-01-25T00:57:39;2.65;;;1.10;;
50205;SDS011;36098;48.390;10.856;2024-01-25T01:00:05;3.15;;;1.10;;
50205;SDS011;36098;48.390;10.856;2024-01-25T01:02:35;4.88;;;1.27;;
50205;SDS011;36098;48.390;10.856;2024-01-25T01:05:01;4.20;;;1.30;;
50205;SDS011;36098;48.390;10.856;2024-01-25T01:07:27;4.30;;;1.38;;
50205;SDS011;36098;48.390;10.856;2024-01-25T01:09:52;4.35;;;1.10;;
50205;SDS011;36098;48.390;10.856;2024-01-25T01:12:18;2.92;;;0.98;;
50205;SDS011;36098;48.390;10.856;2024-01-25T01:14:43;2.50;;;1.27;;
50205;SDS011;36098;48.390;10.856;2024-01-25T01:17:09;2.65;;;1.23;;
50205;SDS011;36098;48.390;10.856;2024-01-25T01:19:34;3.83;;;1.23;;
50205;SDS011;36098;48.390;10.856;2024-01-25T01:21:59;3.55;;;1.35;;
50205;SDS011;36098;48.390;10.856;2024-01-25T01:24:24;3.50;;;1.20;;
50205;SDS011;36098;48.390;10.856;2024-01-25T01:26:50;3.13;;;1.10;;
50205;SDS011;36098;48.390;10.856;2024-01-25T01:29:15;3.03;;;1.10;;
50205;SDS011;36098;48.390;10.856;2024-01-25T01:31:41;1.83;;;0.90;;
50205;SDS011;36098;48.390;10.856;2024-01-25T01:34:06;3.88;;;1.38;;
50205;SDS011;36098;48.390;10.856;2024-01-25T01:36:31;4.80;;;1.42;;
50205;SDS011;36098;48.390;10.856;2024-01-25T01:38:57;3.92;;;1.20;;
50205;SDS011;36098;48.390;10.856;2024-01-25T01:41:22;3.42;;;1.20;;
50205;SDS011;36098;48.390;10.856;2024-01-25T01:43:47;2.60;;;1.13;;
50205;SDS011;36098;48.390;10.856;2024-01-25T01:46:20;3.15;;;1.00;;
50205;SDS011;36098;48.390;10.856;2024-01-25T01:48:48;2.88;;;1.05;;
50205;SDS011;36098;48.390;10.856;2024-01-25T01:51:13;2.28;;;1.08;;
50205;SDS011;36098;48.390;10.856;2024-01-25T01:53:39;3.80;;;1.17;;
50205;SDS011;36098;48.390;10.856;2024-01-25T01:56:04;4.68;;;1.10;;
50205;SDS011;36098;48.390;10.856;2024-01-25T01:58:31;3.10;;;1.00;;
50205;SDS011;36098;48.390;10.856;2024-01-25T02:00:57;3.25;;;1.15;;
50205;SDS011;36098;48.390;10.856;2024-01-25T02:03:24;2.70;;;1.20;;
50205;SDS011;36098;48.390;10.856;2024-01-25T02:05:49;4.38;;;1.48;;
50205;SDS011;36098;48.390;10.856;2024-01-25T02:08:14;3.60;;;1.40;;
50205;SDS011;36098;48.390;10.856;2024-01-25T02:10:40;2.25;;;1.10;;
50205;SDS011;36098;48.390;10.856;2024-01-25T02:13:05;3.33;;;1.10;;
50205;SDS011;36098;48.390;10.856;2024-01-25T02:15:30;2.28;;;1.08;;
50205;SDS011;36098;48.390;10.856;2024-01-25T02:17:56;3.45;;;0.93;;
50205;SDS011;36098;48.390;10.856;2024-01-25T02:20:21;2.70;;;1.13;;
50205;SDS011;36098;48.390;10.856;2024-01-25T02:22:46;4.38;;;1.00;;
50205;SDS011;36098;48.390;10.856;2024-01-25T02:25:12;2.45;;;1.10;;
50205;SDS011;36098;48.390;10.856;2024-01-25T02:27:37;3.85;;;1.23;;
50205;SDS011;36098;48.390;10.856;2024-01-25T02:30:04;3.78;;;1.13;;
50205;SDS011;36098;48.390;10.856;2024-01-25T02:32:31;3.13;;;1.20;;
50205;SDS011;36098;48.390;10.856;2024-01-25T02:34:56;3.40;;;1.27;;
50205;SDS011;36098;48.390;10.856;2024-01-25T02:37:21;3.88;;;1.40;;
50205;SDS011;36098;48.390;10.856;2024-01-25T02:39:46;2.45;;;1.20;;
50205;SDS011;36098;48.390;10.856;2024-01-25T02:42:12;3.22;;;1.10;;
50205;SDS011;36098;48.390;10.856;2024-01-25T02:44:38;2.80;;;1.10;;
50205;SDS011;36098;48.390;10.856;2024-01-25T02:47:03;4.03;;;1.20;;
50205;SDS011;36098;48.390;10.856;2024-01-25T02:49:28;3.05;;;1.15;;
50205;SDS011;36098;48.390;10.856;2024-01-25T02:51:54;5.03;;;1.38;;
50205;SDS011;36098;48.390;10.856;2024-01-25T02:54:19;2.15;;;1.00;;
50205;SDS011;36098;48.390;10.856;2024-01-25T02:56:44;5.88;;;1.75;;
50205;SDS011;36098;48.390;10.856;2024-01-25T02:59:09;3.25;;;1.30;;
50205;SDS011;36098;48.390;10.856;2024-01-25T03:01:39;3.30;;;1.10;;
50205;SDS011;36098;48.390;10.856;2024-01-25T03:04:05;3.65;;;1.20;;
50205;SDS011;36098;48.390;10.856;2024-01-25T03:06:30;3.97;;;1.10;;
50205;SDS011;36098;48.390;10.856;2024-01-25T03:08:56;3.08;;;1.20;;
50205;SDS011;36098;48.390;10.856;2024-01-25T03:11:21;3.00;;;1.13;;
50205;SDS011;36098;48.390;10.856;2024-01-25T03:13:46;1.88;;;0.98;;
50205;SDS011;36098;48.390;10.856;2024-01-25T03:16:11;4.00;;;1.30;;
50205;SDS011;36098;48.390;10.856;2024-01-25T03:18:37;3.53;;;1.40;;
50205;SDS011;36098;48.390;10.856;2024-01-25T03:21:02;3.95;;;1.15;;
50205;SDS011;36098;48.390;10.856;2024-01-25T03:23:27;3.67;;;1.35;;
50205;SDS011;36098;48.390;10.856;2024-01-25T03:25:53;4.18;;;1.08;;
50205;SDS011;36098;48.390;10.856;2024-01-25T03:28:18;2.95;;;1.25;;
50205;SDS011;36098;48.390;10.856;2024-01-25T03:30:43;2.83;;;1.10;;
50205;SDS011;36098;48.390;10.856;2024-01-25T03:33:09;3.88;;;1.10;;
50205;SDS011;36098;48.390;10.856;2024-01-25T03:35:34;2.83;;;0.98;;
50205;SDS011;36098;48.390;10.856;2024-01-25T03:37:59;2.95;;;1.17;;
50205;SDS011;36098;48.390;10.856;2024-01-25T03:40:25;3.97;;;1.20;;
50205;SDS011;36098;48.390;10.856;2024-01-25T03:42:50;2.33;;;1.10;;
50205;SDS011;36098;48.390;10.856;2024-01-25T03:45:15;2.50;;;0.85;;
50205;SDS011;36098;48.390;10.856;2024-01-25T03:47:40;4.50;;;1.35;;
50205;SDS011;36098;48.390;10.856;2024-01-25T03:50:05;2.45;;;1.05;;
50205;SDS011;36098;48.390;10.856;2024-01-25T03:52:31;3.38;;;1.45;;
50205;SDS011;36098;48.390;10.856;2024-01-25T03:54:56;3.53;;;1.00;;
50205;SDS011;36098;48.390;10.856;2024-01-25T03:57:22;2.65;;;1.23;;
50205;SDS011;36098;48.390;10.856;2024-01-25T03:59:47;3.88;;;1.23;;
50205;SDS011;36098;48.390;10.856;2024-01-25T04:02:12;2.28;;;0.90;;
50205;SDS011;36098;48.390;10.856;2024-01-25T04:04:38;2.85;;;1.08;;
50205;SDS011;36098;48.390;10.856;2024-01-25T04:07:03;2.78;;;1.10;;
50205;SDS011;36098;48.390;10.856;2024-01-25T04:09:28;4.03;;;1.10;;
50205;SDS011;36098;48.390;10.856;2024-01-25T04:11:54;2.33;;;1.13;;
50205;SDS011;36098;48.390;10.856;2024-01-25T04:14:19;3.58;;;1.15;;
50205;SDS011;36098;48.390;10.856;2024-01-25T04:16:45;3.00;;;1.27;;
50205;SDS011;36098;48.390;10.856;2024-01-25T04:19:11;2.55;;;1.00;;
50205;SDS011;36098;48.390;10.856;2024-01-25T04:21:37;3.22;;;1.13;;
50205;SDS011;36098;48.390;10.856;2024-01-25T04:24:03;3.47;;;1.15;;
50205;SDS011;36098;48.390;10.856;2024-01-25T04:26:29;3.17;;;1.30;;
50205;SDS011;36098;48.390;10.856;2024-01-25T04:28:54;4.13;;;1.10;;
50205;SDS011;36098;48.390;10.856;2024-01-25T04:31:19;2.72;;;1.00;;
50205;SDS011;36098;48.390;10.856;2024-01-25T04:33:45;3.08;;;1.20;;
50205;SDS011;36098;48.390;10.856;2024-01-25T04:36:10;2.58;;;1.10;;
50205;SDS011;36098;48.390;10.856;2024-01-25T04:38:35;2.38;;;1.20;;
50205;SDS011;36098;48.390;10.856;2024-01-25T04:41:01;3.45;;;1.00;;
50205;SDS011;36098;48.390;10.856;2024-01-25T04:43:26;3.10;;;0.95;;
50205;SDS011;36098;48.390;10.856;2024-01-25T04:45:51;3.65;;;1.10;;
50205;SDS011;36098;48.390;10.856;2024-01-25T04:48:17;3.88;;;1.20;;
50205;SDS011;36098;48.390;10.856;2024-01-25T04:50:42;2.95;;;1.30;;
50205;SDS011;36098;48.390;10.856;2024-01-25T04:53:07;4.82;;;1.17;;
50205;SDS011;36098;48.390;10.856;2024-01-25T04:55:32;1.95;;;0.93;;
50205;SDS011;36098;48.390;10.856;2024-01-25T04:57:58;3.85;;;1.10;;
50205;SDS011;36098;48.390;10.856;2024-01-25T05:00:23;2.17;;;0.82;;
50205;SDS011;36098;48.390;10.856;2024-01-25T05:02:49;2.88;;;1.02;;
50205;SDS011;36098;48.390;10.856;2024-01-25T05:05:14;3.25;;;0.98;;
50205;SDS011;36098;48.390;10.856;2024-01-25T05:07:40;2.83;;;1.00;;
50205;SDS011;36098;48.390;10.856;2024-01-25T05:10:05;3.17;;;1.05;;
50205;SDS011;36098;48.390;10.856;2024-01-25T05:12:31;3.30;;;0.98;;
50205;SDS011;36098;48.390;10.856;2024-01-25T05:14:56;2.75;;;1.00;;
50205;SDS011;36098;48.390;10.856;2024-01-25T05:17:21;3.55;;;1.00;;
50205;SDS011;36098;48.390;10.856;2024-01-25T05:19:47;2.80;;;0.93;;
50205;SDS011;36098;48.390;10.856;2024-01-25T05:22:12;1.77;;;0.82;;
50205;SDS011;36098;48.390;10.856;2024-01-25T05:24:37;2.25;;;1.00;;
50205;SDS011;36098;48.390;10.856;2024-01-25T05:27:02;1.77;;;1.05;;
50205;SDS011;36098;48.390;10.856;2024-01-25T05:29:28;2.58;;;1.00;;
50205;SDS011;36098;48.390;10.856;2024-01-25T05:31:53;2.35;;;0.98;;
50205;SDS011;36098;48.390;10.856;2024-01-25T05:34:18;1.83;;;0.82;;
50205;SDS011;36098;48.390;10.856;2024-01-25T05:36:44;1.70;;;0.82;;
50205;SDS011;36098;48.390;10.856;2024-01-25T05:39:09;2.63;;;1.05;;
50205;SDS011;36098;48.390;10.856;2024-01-25T05:41:34;2.00;;;0.90;;
50205;SDS011;36098;48.390;10.856;2024-01-25T05:44:00;3.42;;;1.33;;
50205;SDS011;36098;48.390;10.856;2024-01-25T05:46:25;2.05;;;0.80;;
50205;SDS011;36098;48.390;10.856;2024-01-25T05:48:50;3.55;;;1.20;;
50205;SDS011;36098;48.390;10.856;2024-01-25T05:51:16;2.63;;;1.02;;
50205;SDS011;36098;48.390;10.856;2024-01-25T05:53:41;5.20;;;1.08;;
50205;SDS011;36098;48.390;10.856;2024-01-25T05:56:06;2.80;;;0.90;;
50205;SDS011;36098;48.390;10.856;2024-01-25T05:58:31;1.60;;;0.82;;
50205;SDS011;36098;48.390;10.856;2024-01-25T06:00:57;2.08;;;1.00;;
50205;SDS011;36098;48.390;10.856;2024-01-25T06:03:22;4.63;;;0.95;;
50205;SDS011;36098;48.390;10.856;2024-01-25T06:05:47;3.30;;;0.82;;
50205;SDS011;36098;48.390;10.856;2024-01-25T06:08:12;3.78;;;1.00;;
50205;SDS011;36098;48.390;10.856;2024-01-25T06:10:38;3.88;;;1.25;;
50205;SDS011;36098;48.390;10.856;2024-01-25T06:13:05;8.18;;;1.20;;
50205;SDS011;36098;48.390;10.856;2024-01-25T06:15:30;7.03;;;1.20;;
50205;SDS011;36098;48.390;10.856;2024-01-25T06:17:56;4.78;;;1.27;;
50205;SDS011;36098;48.390;10.856;2024-01-25T06:20:22;8.30;;;1.10;;
50205;SDS011;36098;48.390;10.856;2024-01-25T06:22:47;4.65;;;1.60;;
50205;SDS011;36098;48.390;10.856;2024-01-25T06:25:12;3.17;;;1.13;;
50205;SDS011;36098;48.390;10.856;2024-01-25T06:27:38;9.52;;;1.20;;
50205;SDS011;36098;48.390;10.856;2024-01-25T06:30:03;3.60;;;1.05;;
50205;SDS011;36098;48.390;10.856;2024-01-25T06:32:29;5.28;;;1.20;;
50205;SDS011;36098;48.390;10.856;2024-01-25T06:34:54;2.78;;;1.10;;
50205;SDS011;36098;48.390;10.856;2024-01-25T06:37:19;4.00;;;1.20;;
50205;SDS011;36098;48.390;10.856;2024-01-25T06:39:44;7.95;;;1.25;;
50205;SDS011;36098;48.390;10.856;2024-01-25T06:42:10;3.40;;;1.08;;
50205;SDS011;36098;48.390;10.856;2024-01-25T06:44:35;4.68;;;1.33;;
50205;SDS011;36098;48.390;10.856;2024-01-25T06:47:00;5.15;;;1.10;;
50205;SDS011;36098;48.390;10.856;2024-01-25T06:49:25;2.42;;;0.90;;
50205;SDS011;36098;48.390;10.856;2024-01-25T06:51:51;3.55;;;1.17;;
50205;SDS011;36098;48.390;10.856;2024-01-25T06:54:16;5.03;;;1.10;;
50205;SDS011;36098;48.390;10.856;2024-01-25T06:56:41;3.38;;;1.10;;
50205;SDS011;36098;48.390;10.856;2024-01-25T06:59:07;2.05;;;0.93;;
50205;SDS011;36098;48.390;10.856;2024-01-25T07:01:32;3.03;;;0.95;;
50205;SDS011;36098;48.390;10.856;2024-01-25T07:03:57;4.50;;;0.90;;
50205;SDS011;36098;48.390;10.856;2024-01-25T07:06:23;4.20;;;1.20;;
50205;SDS011;36098;48.390;10.856;2024-01-25T07:08:48;2.78;;;1.10;;
50205;SDS011;36098;48.390;10.856;2024-01-25T07:11:14;5.43;;;1.40;;
50205;SDS011;36098;48.390;10.856;2024-01-25T07:13:40;5.35;;;1.10;;
50205;SDS011;36098;48.390;10.856;2024-01-25T07:16:06;6.35;;;1.10;;
50205;SDS011;36098;48.390;10.856;2024-01-25T07:18:31;5.60;;;1.00;;
50205;SDS011;36098;48.390;10.856;2024-01-25T07:20:56;4.35;;;1.20;;
50205;SDS011;36098;48.390;10.856;2024-01-25T07:23:21;6.68;;;1.10;;
50205;SDS011;36098;48.390;10.856;2024-01-25T07:25:47;4.90;;;1.30;;
50205;SDS011;36098;48.390;10.856;2024-01-25T07:28:12;5.32;;;1.30;;
50205;SDS011;36098;48.390;10.856;2024-01-25T07:30:38;10.25;;;1.30;;
50205;SDS011;36098;48.390;10.856;2024-01-25T07:33:03;4.78;;;1.25;;
50205;SDS011;36098;48.390;10.856;2024-01-25T07:35:28;5.07;;;1.38;;
50205;SDS011;36098;48.390;10.856;2024-01-25T07:37:54;7.60;;;1.40;;
50205;SDS011;36098;48.390;10.856;2024-01-25T07:40:19;7.47;;;1.27;;
50205;SDS011;36098;48.390;10.856;2024-01-25T07:42:45;4.03;;;1.20;;
50205;SDS011;36098;48.390;10.856;2024-01-25T07:45:12;6.97;;;1.42;;
50205;SDS011;36098;48.390;10.856;2024-01-25T07:47:38;3.83;;;0.90;;
50205;SDS011;36098;48.390;10.856;2024-01-25T07:50:06;5.13;;;1.17;;
50205;SDS011;36098;48.390;10.856;2024-01-25T07:52:31;4.78;;;1.15;;
50205;SDS011;36098;48.390;10.856;2024-01-25T07:54:56;5.10;;;1.42;;
50205;SDS011;36098;48.390;10.856;2024-01-25T07:57:22;3.78;;;1.10;;
50205;SDS011;36098;48.390;10.856;2024-01-25T07:59:47;3.45;;;1.20;;
50205;SDS011;36098;48.390;10.856;2024-01-25T08:02:12;5.22;;;1.10;;
50205;SDS011;36098;48.390;10.856;2024-01-25T08:04:38;5.15;;;1.20;;
50205;SDS011;36098;48.390;10.856;2024-01-25T08:07:03;3.35;;;1.15;;
50205;SDS011;36098;48.390;10.856;2024-01-25T08:09:28;4.70;;;1.25;;
50205;SDS011;36098;48.390;10.856;2024-01-25T08:11:54;3.42;;;1.27;;
50205;SDS011;36098;48.390;10.856;2024-01-25T08:14:19;4.15;;;1.20;;
50205;SDS011;36098;48.390;10.856;2024-01-25T08:16:44;3.38;;;1.00;;
50205;SDS011;36098;48.390;10.856;2024-01-25T08:19:10;5.25;;;0.90;;
50205;SDS011;36098;48.390;10.856;2024-01-25T08:21:35;3.90;;;1.30;;
50205;SDS011;36098;48.390;10.856;2024-01-25T08:24:01;3.00;;;1.10;;
50205;SDS011;36098;48.390;10.856;2024-01-25T08:26:27;4.20;;;1.50;;
50205;SDS011;36098;48.390;10.856;2024-01-25T08:28:52;2.75;;;1.00;;
50205;SDS011;36098;48.390;10.856;2024-01-25T08:31:17;2.55;;;1.27;;
50205;SDS011;36098;48.390;10.856;2024-01-25T08:33:43;3.88;;;1.33;;
50205;SDS011;36098;48.390;10.856;2024-01-25T08:36:16;4.65;;;1.20;;
50205;SDS011;36098;48.390;10.856;2024-01-25T08:38:42;2.67;;;1.08;;
50205;SDS011;36098;48.390;10.856;2024-01-25T08:41:07;3.85;;;1.48;;
50205;SDS011;36098;48.390;10.856;2024-01-25T08:43:32;2.83;;;0.88;;
50205;SDS011;36098;48.390;10.856;2024-01-25T08:45:58;3.60;;;1.00;;
50205;SDS011;36098;48.390;10.856;2024-01-25T08:48:23;2.75;;;0.95;;
50205;SDS011;36098;48.390;10.856;2024-01-25T08:50:48;5.90;;;1.10;;
50205;SDS011;36098;48.390;10.856;2024-01-25T08:53:18;4.10;;;1.00;;
50205;SDS011;36098;48.390;10.856;2024-01-25T08:55:43;4.38;;;1.33;;
50205;SDS011;36098;48.390;10.856;2024-01-25T08:58:09;3.00;;;1.13;;
50205;SDS011;36098;48.390;10.856;2024-01-25T09:00:34;2.75;;;1.05;;
50205;SDS011;36098;48.390;10.856;2024-01-25T09:02:59;2.75;;;0.95;;
50205;SDS011;36098;48.390;10.856;2024-01-25T09:05:25;4.10;;;0.95;;
50205;SDS011;36098;48.390;10.856;2024-01-25T09:07:53;4.00;;;1.45;;
50205;SDS011;36098;48.390;10.856;2024-01-25T09:10:18;3.33;;;0.98;;
50205;SDS011;36098;48.390;10.856;2024-01-25T09:12:44;2.80;;;1.02;;
50205;SDS011;36098;48.390;10.856;2024-01-25T09:15:10;5.70;;;1.48;;
50205;SDS011;36098;48.390;10.856;2024-01-25T09:17:36;3.08;;;1.30;;
50205;SDS011;36098;48.390;10.856;2024-01-25T09:20:01;2.13;;;0.93;;
50205;SDS011;36098;48.390;10.856;2024-01-25T09:22:28;2.17;;;0.82;;
50205;SDS011;36098;48.390;10.856;2024-01-25T09:24:53;3.97;;;1.10;;
50205;SDS011;36098;48.390;10.856;2024-01-25T09:27:18;4.28;;;1.35;;
50205;SDS011;36098;48.390;10.856;2024-01-25T09:29:44;3.95;;;1.40;;
50205;SDS011;36098;48.390;10.856;2024-01-25T09:32:09;3.45;;;1.23;;
50205;SDS011;36098;48.390;10.856;2024-01-25T09:34:35;5.03;;;1.40;;
50205;SDS011;36098;48.390;10.856;2024-01-25T09:37:02;4.78;;;1.15;;
50205;SDS011;36098;48.390;10.856;2024-01-25T09:39:27;3.85;;;1.25;;
50205;SDS011;36098;48.390;10.856;2024-01-25T09:41:53;3.08;;;0.85;;
50205;SDS011;36098;48.390;10.856;2024-01-25T09:44:18;3.88;;;1.13;;
50205;SDS011;36098;48.390;10.856;2024-01-25T09:46:44;4.68;;;0.90;;
50205;SDS011;36098;48.390;10.856;2024-01-25T09:49:10;3.85;;;1.30;;
50205;SDS011;36098;48.390;10.856;2024-01-25T09:51:39;2.78;;;1.20;;
50205;SDS011;36098;48.390;10.856;2024-01-25T09:54:06;5.53;;;1.17;;
50205;SDS011;36098;48.390;10.856;2024-01-25T09:56:32;2.40;;;1.15;;
50205;SDS011;36098;48.390;10.856;2024-01-25T09:58:58;2.92;;;1.10;;
50205;SDS011;36098;48.390;10.856;2024-01-25T10:01:24;3.70;;;1.20;;
50205;SDS011;36098;48.390;10.856;2024-01-25T10:03:50;2.90;;;1.10;;
50205;SDS011;36098;48.390;10.856;2024-01-25T10:06:15;4.10;;;1.38;;
50205;SDS011;36098;48.390;10.856;2024-01-25T10:08:41;3.83;;;1.08;;
50205;SDS011;36098;48.390;10.856;2024-01-25T10:11:07;4.22;;;1.00;;
50205;SDS011;36098;48.390;10.856;2024-01-25T10:13:43;2.88;;;1.10;;
50205;SDS011;36098;48.390;10.856;2024-01-25T10:16:16;3.05;;;1.13;;
50205;SDS011;36098;48.390;10.856;2024-01-25T10:18:43;4.82;;;1.13;;
50205;SDS011;36098;48.390;10.856;2024-01-25T10:21:09;4.07;;;1.30;;
50205;SDS011;36098;48.390;10.856;2024-01-25T10:23:35;3.30;;;1.27;;
50205;SDS011;36098;48.390;10.856;2024-01-25T10:26:01;2.63;;;0.90;;
50205;SDS011;36098;48.390;10.856;2024-01-25T10:28:27;2.78;;;0.90;;
50205;SDS011;36098;48.390;10.856;2024-01-25T10:30:55;3.35;;;1.10;;
50205;SDS011;36098;48.390;10.856;2024-01-25T10:33:22;2.67;;;1.00;;
50205;SDS011;36098;48.390;10.856;2024-01-25T10:35:49;3.53;;;1.10;;
50205;SDS011;36098;48.390;10.856;2024-01-25T10:38:19;4.90;;;1.48;;
50205;SDS011;36098;48.390;10.856;2024-01-25T10:40:46;3.10;;;1.10;;
50205;SDS011;36098;48.390;10.856;2024-01-25T10:43:12;4.25;;;1.30;;
50205;SDS011;36098;48.390;10.856;2024-01-25T10:45:37;4.50;;;1.40;;
50205;SDS011;36098;48.390;10.856;2024-01-25T10:48:03;6.13;;;1.67;;
50205;SDS011;36098;48.390;10.856;2024-01-25T10:50:29;3.47;;;1.40;;
50205;SDS011;36098;48.390;10.856;2024-01-25T10:52:54;4.85;;;1.23;;
50205;SDS011;36098;48.390;10.856;2024-01-25T10:55:20;5.38;;;1.10;;
50205;SDS011;36098;48.390;10.856;2024-01-25T10:57:46;3.72;;;1.25;;
50205;SDS011;36098;48.390;10.856;2024-01-25T11:00:12;3.70;;;1.33;;
50205;SDS011;36098;48.390;10.856;2024-01-25T11:02:42;3.17;;;1.38;;
50205;SDS011;36098;48.390;10.856;2024-01-25T11:05:10;2.72;;;1.15;;
50205;SDS011;36098;48.390;10.856;2024-01-25T11:10:16;3.85;;;1.40;;
50205;SDS011;36098;48.390;10.856;2024-01-25T11:12:56;4.10;;;1.38;;
50205;SDS011;36098;48.390;10.856;2024-01-25T11:15:23;5.13;;;1.50;;
50205;SDS011;36098;48.390;10.856;2024-01-25T11:17:54;4.45;;;1.10;;
50205;SDS011;36098;48.390;10.856;2024-01-25T11:20:23;2.80;;;1.10;;
50205;SDS011;36098;48.390;10.856;2024-01-25T11:22:55;6.90;;;1.25;;
50205;SDS011;36098;48.390;10.856;2024-01-25T11:25:21;4.75;;;1.50;;
50205;SDS011;36098;48.390;10.856;2024-01-25T11:27:47;4.50;;;1.30;;
50205;SDS011;36098;48.390;10.856;2024-01-25T11:30:14;4.28;;;1.40;;
50205;SDS011;36098;48.390;10.856;2024-01-25T11:32:40;6.25;;;1.83;;
50205;SDS011;36098;48.390;10.856;2024-01-25T11:35:05;6.07;;;1.50;;
50205;SDS011;36098;48.390;10.856;2024-01-25T11:37:35;5.72;;;2.00;;
50205;SDS011;36098;48.390;10.856;2024-01-25T11:40:01;5.57;;;1.63;;
50205;SDS011;36098;48.390;10.856;2024-01-25T11:42:26;4.78;;;1.65;;
50205;SDS011;36098;48.390;10.856;2024-01-25T11:44:55;5.03;;;1.70;;
50205;SDS011;36098;48.390;10.856;2024-01-25T11:47:20;3.75;;;1.30;;
50205;SDS011;36098;48.390;10.856;2024-01-25T11:49:46;3.88;;;1.30;;
50205;SDS011;36098;48.390;10.856;2024-01-25T11:52:11;4.97;;;1.50;;
50205;SDS011;36098;48.390;10.856;2024-01-25T11:54:36;4.95;;;1.17;;
50205;SDS011;36098;48.390;10.856;2024-01-25T11:57:02;5.32;;;1.50;;
50205;SDS011;36098;48.390;10.856;2024-01-25T11:59:27;4.05;;;1.65;;
50205;SDS011;36098;48.390;10.856;2024-01-25T12:01:52;8.05;;;1.60;;
50205;SDS011;36098;48.390;10.856;2024-01-25T12:04:18;3.72;;;1.42;;
50205;SDS011;36098;48.390;10.856;2024-01-25T12:06:43;6.13;;;1.40;;
50205;SDS011;36098;48.390;10.856;2024-01-25T12:09:09;6.43;;;1.17;;
50205;SDS011;36098;48.390;10.856;2024-01-25T12:11:35;8.32;;;1.60;;
50205;SDS011;36098;48.390;10.856;2024-01-25T12:14:00;5.40;;;1.25;;
50205;SDS011;36098;48.390;10.856;2024-01-25T12:16:25;7.82;;;1.48;;
50205;SDS011;36098;48.390;10.856;2024-01-25T12:18:51;7.35;;;1.60;;
50205;SDS011;36098;48.390;10.856;2024-01-25T12:21:16;3.83;;;1.45;;
50205;SDS011;36098;48.390;10.856;2024-01-25T12:23:42;6.85;;;1.60;;
50205;SDS011;36098;48.390;10.856;2024-01-25T12:26:09;4.57;;;1.60;;
50205;SDS011;36098;48.390;10.856;2024-01-25T12:28:35;5.80;;;1.50;;
50205;SDS011;36098;48.390;10.856;2024-01-25T12:31:02;9.20;;;1.83;;
50205;SDS011;36098;48.390;10.856;2024-01-25T12:33:31;7.53;;;1.58;;
50205;SDS011;36098;48.390;10.856;2024-01-25T12:35:57;7.82;;;1.70;;
50205;SDS011;36098;48.390;10.856;2024-01-25T12:38:23;8.32;;;1.80;;
50205;SDS011;36098;48.390;10.856;2024-01-25T12:40:50;7.55;;;1.90;;
50205;SDS011;36098;48.390;10.856;2024-01-25T12:43:15;9.30;;;1.90;;
50205;SDS011;36098;48.390;10.856;2024-01-25T12:45:41;6.43;;;1.65;;
50205;SDS011;36098;48.390;10.856;2024-01-25T12:48:07;11.65;;;1.67;;
50205;SDS011;36098;48.390;10.856;2024-01-25T12:50:33;9.95;;;1.73;;
50205;SDS011;36098;48.390;10.856;2024-01-25T12:52:59;5.20;;;1.58;;
50205;SDS011;36098;48.390;10.856;2024-01-25T12:55:25;8.05;;;1.95;;
50205;SDS011;36098;48.390;10.856;2024-01-25T12:57:50;12.85;;;1.80;;
50205;SDS011;36098;48.390;10.856;2024-01-25T13:00:15;10.38;;;2.05;;
50205;SDS011;36098;48.390;10.856;2024-01-25T13:02:41;6.18;;;1.58;;
50205;SDS011;36098;48.390;10.856;2024-01-25T13:05:06;9.82;;;1.80;;
50205;SDS011;36098;48.390;10.856;2024-01-25T13:07:31;12.68;;;2.05;;
50205;SDS011;36098;48.390;10.856;2024-01-25T13:09:57;8.90;;;1.83;;
50205;SDS011;36098;48.390;10.856;2024-01-25T13:12:22;10.27;;;1.45;;
50205;SDS011;36098;48.390;10.856;2024-01-25T13:14:47;6.22;;;1.42;;
50205;SDS011;36098;48.390;10.856;2024-01-25T13:17:12;8.50;;;1.33;;
50205;SDS011;36098;48.390;10.856;2024-01-25T13:19:38;10.50;;;1.60;;
50205;SDS011;36098;48.390;10.856;2024-01-25T13:22:03;6.28;;;1.52;;
50205;SDS011;36098;48.390;10.856;2024-01-25T13:24:28;10.73;;;1.73;;
50205;SDS011;36098;48.390;10.856;2024-01-25T13:26:54;6.30;;;1.45;;
50205;SDS011;36098;48.390;10.856;2024-01-25T13:29:19;11.25;;;1.40;;
50205;SDS011;36098;48.390;10.856;2024-01-25T13:31:44;7.32;;;1.48;;
50205;SDS011;36098;48.390;10.856;2024-01-25T13:34:10;8.65;;;1.75;;
50205;SDS011;36098;48.390;10.856;2024-01-25T13:36:35;4.80;;;1.30;;
50205;SDS011;36098;48.390;10.856;2024-01-25T13:39:00;11.00;;;1.60;;
50205;SDS011;36098;48.390;10.856;2024-01-25T13:41:26;10.43;;;2.00;;
50205;SDS011;36098;48.390;10.856;2024-01-25T13:43:51;10.95;;;2.00;;
50205;SDS011;36098;48.390;10.856;2024-01-25T13:46:17;11.88;;;2.05;;
50205;SDS011;36098;48.390;10.856;2024-01-25T13:48:42;11.90;;;1.90;;
50205;SDS011;36098;48.390;10.856;2024-01-25T13:51:07;8.90;;;1.75;;
50205;SDS011;36098;48.390;10.856;2024-01-25T13:53:33;8.05;;;1.58;;
50205;SDS011;36098;48.390;10.856;2024-01-25T13:55:59;6.57;;;1.30;;
50205;SDS011;36098;48.390;10.856;2024-01-25T13:58:24;8.95;;;1.98;;
50205;SDS011;36098;48.390;10.856;2024-01-25T14:00:49;8.68;;;1.70;;
50205;SDS011;36098;48.390;10.856;2024-01-25T14:03:15;11.57;;;1.48;;
50205;SDS011;36098;48.390;10.856;2024-01-25T14:05:42;6.10;;;1.50;;
50205;SDS011;36098;48.390;10.856;2024-01-25T14:08:07;7.13;;;1.52;;
50205;SDS011;36098;48.390;10.856;2024-01-25T14:10:32;3.78;;;1.27;;
50205;SDS011;36098;48.390;10.856;2024-01-25T14:12:59;3.80;;;1.40;;
50205;SDS011;36098;48.390;10.856;2024-01-25T14:15:25;5.03;;;2.05;;
50205;SDS011;36098;48.390;10.856;2024-01-25T14:17:50;5.75;;;1.60;;
50205;SDS011;36098;48.390;10.856;2024-01-25T14:20:15;10.95;;;1.70;;
50205;SDS011;36098;48.390;10.856;2024-01-25T14:22:41;6.60;;;1.50;;
50205;SDS011;36098;48.390;10.856;2024-01-25T14:25:07;5.57;;;1.38;;
50205;SDS011;36098;48.390;10.856;2024-01-25T14:27:32;8.13;;;1.60;;